createdAt,value
2018-12-23T00:32:46.283Z,26.9
2018-12-23T00:33:37.563Z,27
2018-12-23T00:34:56.469Z,27
2018-12-23T00:36:14.641Z,27
2018-12-23T00:37:08.986Z,27
2018-12-23T00:37:46.938Z,26.9
2018-12-23T00:38:35.487Z,26.9
2018-12-23T05:02:03.962Z,35.4
2018-12-23T05:02:53.262Z,35.4
2018-12-23T05:03:48.992Z,35.4
2018-12-23T05:04:34.184Z,35.4
2018-12-23T05:05:23.927Z,35.4
2018-12-23T05:06:14.282Z,35.4
2018-12-23T05:07:03.737Z,35.4
2018-12-23T05:07:53.589Z,35.4
2018-12-23T05:08:43.874Z,35.4
2018-12-23T05:09:34.354Z,35.4
2018-12-23T05:10:24.509Z,35.4
2018-12-23T05:11:14.012Z,35.4
2018-12-23T05:12:04.129Z,35.4
2018-12-23T05:12:53.597Z,35.3
2018-12-23T05:13:43.667Z,35.3
2018-12-23T05:14:34.247Z,35.3
2018-12-23T05:15:23.299Z,35.3
2018-12-23T05:16:14.123Z,35.3
2018-12-23T05:17:04.446Z,35.3
2018-12-23T05:17:55.249Z,35.3
2018-12-23T05:18:45.126Z,35.3
2018-12-23T05:19:34.428Z,35.3
2018-12-23T05:20:24.361Z,35.3
2018-12-23T05:21:14.437Z,35.3
2018-12-23T05:22:05.358Z,35.3
2018-12-23T05:22:55.904Z,35.3
2018-12-23T05:23:44.895Z,35.3
2018-12-23T05:24:33.921Z,35.3
2018-12-23T05:25:23.855Z,35.3
2018-12-23T05:26:15.400Z,35.3
2018-12-23T05:27:05.068Z,35.3
2018-12-23T05:27:55.143Z,35.3
2018-12-23T05:28:45.508Z,35.3
2018-12-23T05:29:35.303Z,35.3
2018-12-23T05:30:25.598Z,35.3
2018-12-23T05:31:14.833Z,35.3
2018-12-23T05:32:05.746Z,35.3
2018-12-23T05:32:56.355Z,35.3
2018-12-23T05:33:45.827Z,35.2
2018-12-23T05:34:35.082Z,35.3
2018-12-23T05:35:25.388Z,35.2
2018-12-23T05:36:15.432Z,35.2
2018-12-23T05:37:05.487Z,35.2
2018-12-23T05:37:56.103Z,35.2
2018-12-23T05:38:45.605Z,35.2
2018-12-23T05:39:35.955Z,35.2
2018-12-23T05:40:26.084Z,35.2
2018-12-23T05:41:16.622Z,35.2
2018-12-23T05:42:05.867Z,35.2
2018-12-23T05:42:57.056Z,35.1
2018-12-23T05:43:45.982Z,35.2
2018-12-23T05:44:36.345Z,35.1
2018-12-23T05:45:26.655Z,35.1
2018-12-23T05:46:16.519Z,35.1
2018-12-23T05:47:06.702Z,35.1
2018-12-23T05:47:57.029Z,35.1
2018-12-23T05:48:46.905Z,35.1
2018-12-23T05:49:36.446Z,35.1
2018-12-23T05:50:26.679Z,35.1
2018-12-23T05:51:16.734Z,35.1
2018-12-23T05:52:07.131Z,35.1
2018-12-23T05:52:57.106Z,35.1
2018-12-23T05:53:46.910Z,35.1
2018-12-23T05:54:37.301Z,35.1
2018-12-23T05:55:27.319Z,35.1
2018-12-23T05:56:17.060Z,35.1
2018-12-23T05:57:07.123Z,35.1
2018-12-23T05:57:57.778Z,35.1
2018-12-23T05:58:47.563Z,35.1
2018-12-23T05:59:37.327Z,35
2018-12-23T06:00:27.103Z,35
2018-12-23T06:01:17.701Z,35
2018-12-23T06:02:07.516Z,35
2018-12-23T06:02:57.798Z,35
2018-12-23T06:03:47.928Z,35
2018-12-23T06:04:37.420Z,34.9
2018-12-23T06:05:28.019Z,34.9
2018-12-23T06:06:17.200Z,34.9
2018-12-23T06:07:08.370Z,34.9
2018-12-23T06:07:58.148Z,34.9
2018-12-23T06:08:48.183Z,34.9
2018-12-23T06:09:38.547Z,34.9
2018-12-23T06:10:27.588Z,34.9
2018-12-23T06:11:18.655Z,34.9
2018-12-23T06:12:08.153Z,34.9
2018-12-23T06:12:57.991Z,34.9
2018-12-23T06:13:48.802Z,34.9
2018-12-23T06:14:38.322Z,34.9
2018-12-23T06:15:28.097Z,34.9
2018-12-23T06:16:18.519Z,34.9
2018-12-23T06:17:09.033Z,34.9
2018-12-23T06:17:58.919Z,34.8
2018-12-23T06:18:49.028Z,34.9
2018-12-23T06:19:38.944Z,34.8
2018-12-23T06:20:28.999Z,34.9
2018-12-23T06:21:18.484Z,34.8
2018-12-23T06:22:08.557Z,34.8
2018-12-23T06:22:58.286Z,34.8
2018-12-23T06:23:49.504Z,34.8
2018-12-23T06:24:39.292Z,34.8
2018-12-23T06:25:29.753Z,34.8
2018-12-23T06:26:19.511Z,34.8
2018-12-23T06:27:09.434Z,34.8
2018-12-23T06:27:59.494Z,34.8
2018-12-23T06:28:51.866Z,34.8
2018-12-23T06:29:39.341Z,34.8
2018-12-23T06:30:29.673Z,34.8
2018-12-23T06:31:19.738Z,34.7
2018-12-23T06:32:09.776Z,34.8
2018-12-23T06:32:59.411Z,34.8
2018-12-23T06:33:49.888Z,34.8
2018-12-23T06:34:39.708Z,34.8
2018-12-23T06:35:30.034Z,34.8
2018-12-23T06:36:19.800Z,34.8
2018-12-23T06:37:15.836Z,34.8
2018-12-23T06:38:00.177Z,34.8
2018-12-23T06:38:50.508Z,34.8
2018-12-23T06:39:40.308Z,34.8
2018-12-23T06:40:30.758Z,34.8
2018-12-23T06:41:20.402Z,34.8
2018-12-23T06:42:10.480Z,34.7
2018-12-23T06:43:00.265Z,34.7
2018-12-23T06:43:50.715Z,34.6
2018-12-23T06:44:40.410Z,34.6
2018-12-23T06:45:30.703Z,34.6
2018-12-23T06:46:20.849Z,34.6
2018-12-23T06:47:10.915Z,34.5
2018-12-23T06:48:00.947Z,34.5
2018-12-23T06:48:51.205Z,34.5
2018-12-23T06:49:40.714Z,34.4
2018-12-23T06:50:31.287Z,34.4
2018-12-23T06:51:20.549Z,34.4
2018-12-23T06:52:11.147Z,34.4
2018-12-23T06:53:00.914Z,34.4
2018-12-23T06:53:51.262Z,34.3
2018-12-23T06:54:41.948Z,34.4
2018-12-23T06:55:30.916Z,34.3
2018-12-23T06:56:21.438Z,34.3
2018-12-23T06:57:11.854Z,34.3
2018-12-23T06:58:01.566Z,34.3
2018-12-23T06:58:50.734Z,34.3
2018-12-23T06:59:41.094Z,34.3
2018-12-23T07:00:31.429Z,34.2
2018-12-23T07:01:21.776Z,34.2
2018-12-23T07:02:11.399Z,34.2
2018-12-23T07:03:01.940Z,34.2
2018-12-23T07:03:51.934Z,34.1
2018-12-23T07:04:41.734Z,34.1
2018-12-23T07:05:32.439Z,34.1
2018-12-23T07:06:22.391Z,34.1
2018-12-23T07:07:20.776Z,34
2018-12-23T07:08:02.217Z,34
2018-12-23T07:08:52.531Z,33.9
2018-12-23T07:09:42.651Z,33.9
2018-12-23T07:10:32.541Z,33.8
2018-12-23T07:11:22.561Z,33.8
2018-12-23T07:12:12.872Z,33.7
2018-12-23T07:13:02.595Z,33.7
2018-12-23T07:13:52.613Z,33.6
2018-12-23T07:14:42.645Z,33.6
2018-12-23T07:15:33.131Z,33.6
2018-12-23T07:16:22.780Z,33.5
2018-12-23T07:17:13.120Z,33.5
2018-12-23T07:18:02.722Z,33.5
2018-12-23T07:18:52.970Z,33.4
2018-12-23T07:19:43.540Z,33.4
2018-12-23T07:20:32.842Z,33.4
2018-12-23T07:21:23.124Z,33.4
2018-12-23T07:22:12.923Z,33.3
2018-12-23T07:23:03.245Z,33.3
2018-12-23T07:23:53.300Z,33.3
2018-12-23T07:24:43.305Z,33.3
2018-12-23T07:25:33.458Z,33.2
2018-12-23T07:26:23.532Z,33.1
2018-12-23T07:27:13.060Z,33.1
2018-12-23T07:28:03.122Z,33.1
2018-12-23T07:28:53.642Z,33.1
2018-12-23T07:29:43.115Z,33.1
2018-12-23T07:30:34.123Z,33
2018-12-23T07:31:23.801Z,32.9
2018-12-23T07:32:13.400Z,32.9
2018-12-23T07:33:03.360Z,32.9
2018-12-23T07:33:53.225Z,32.9
2018-12-23T07:34:43.486Z,32.8
2018-12-23T07:35:34.309Z,32.8
2018-12-23T07:36:23.592Z,32.8
2018-12-23T07:37:13.922Z,32.8
2018-12-23T07:38:06.340Z,32.7
2018-12-23T07:38:54.317Z,32.7
2018-12-23T07:39:44.367Z,32.7
2018-12-23T07:40:33.633Z,32.6
2018-12-23T07:41:24.736Z,32.6
2018-12-23T07:42:14.257Z,32.6
2018-12-23T07:43:04.601Z,32.5
2018-12-23T07:43:54.936Z,32.5
2018-12-23T07:44:45.006Z,32.4
2018-12-23T07:45:34.771Z,32.4
2018-12-23T07:46:25.603Z,32.4
2018-12-23T07:47:14.884Z,32.3
2018-12-23T07:48:04.950Z,32.3
2018-12-23T07:48:54.836Z,32.3
2018-12-23T07:49:45.320Z,32.3
2018-12-23T07:50:35.213Z,32.3
2018-12-23T07:51:25.141Z,32.2
2018-12-23T07:52:14.958Z,32.2
2018-12-23T07:53:04.846Z,32.2
2018-12-23T07:53:55.068Z,32.1
2018-12-23T07:54:44.603Z,32.1
2018-12-23T07:55:34.905Z,32.1
2018-12-23T07:56:24.265Z,32.1
2018-12-23T07:57:15.272Z,32.1
2018-12-23T07:58:05.616Z,32
2018-12-23T07:58:55.116Z,31.9
2018-12-23T07:59:45.450Z,32
2018-12-23T08:00:35.520Z,32
2018-12-23T08:01:25.662Z,32
2018-12-23T08:02:15.940Z,31.9
2018-12-23T08:03:06.253Z,31.9
2018-12-23T08:03:56.290Z,31.9
2018-12-23T08:04:46.062Z,31.9
2018-12-23T08:05:35.852Z,31.8
2018-12-23T08:06:26.445Z,31.8
2018-12-23T08:07:15.756Z,31.8
2018-12-23T08:08:05.759Z,31.8
2018-12-23T08:08:56.354Z,31.8
2018-12-23T08:09:45.584Z,31.8
2018-12-23T08:10:35.985Z,31.8
2018-12-23T08:11:26.004Z,31.8
2018-12-23T08:12:16.094Z,31.7
2018-12-23T08:13:06.450Z,31.7
2018-12-23T08:13:56.433Z,31.7
2018-12-23T08:14:45.732Z,31.6
2018-12-23T08:15:36.324Z,31.6
2018-12-23T08:16:26.102Z,31.6
2018-12-23T08:17:16.661Z,31.6
2018-12-23T08:18:08.062Z,31.6
2018-12-23T08:18:56.569Z,31.6
2018-12-23T08:19:46.614Z,31.6
2018-12-23T08:20:36.661Z,39.1
2018-12-23T08:21:26.699Z,43.2
2018-12-23T08:22:16.783Z,44.6
2018-12-23T08:23:06.853Z,48.6
2018-12-23T08:23:57.383Z,51.1
2018-12-23T08:24:46.789Z,51.8
2018-12-23T08:25:40.825Z,51.6
2018-12-23T08:26:27.338Z,51.2
2018-12-23T08:27:16.280Z,50.8
2018-12-23T08:28:06.631Z,50.3
2018-12-23T08:28:57.049Z,49.8
2018-12-23T08:29:46.195Z,49.3
2018-12-23T08:30:37.623Z,48.8
2018-12-23T08:31:27.123Z,48.3
2018-12-23T08:32:17.775Z,47.8
2018-12-23T08:33:08.326Z,47.3
2018-12-23T08:33:56.755Z,46.8
2018-12-23T08:34:47.352Z,46.3
2018-12-23T08:35:37.987Z,45.9
2018-12-23T08:36:28.277Z,45.5
2018-12-23T08:37:17.815Z,45.1
2018-12-23T08:38:07.581Z,44.7
2018-12-23T08:38:57.916Z,46.9
2018-12-23T08:39:47.498Z,49.1
2018-12-23T08:40:38.615Z,49.6
2018-12-23T08:41:28.852Z,52.1
2018-12-23T08:42:18.883Z,53.8
2018-12-23T08:43:08.242Z,54.1
2018-12-23T08:43:58.715Z,53.8
2018-12-23T08:44:48.361Z,53.4
2018-12-23T08:45:38.292Z,53.4
2018-12-23T08:46:29.170Z,53.6
2018-12-23T08:47:18.437Z,53.9
2018-12-23T08:48:09.137Z,54.2
2018-12-23T08:48:59.098Z,54.5
2018-12-23T08:49:48.863Z,54.7
2018-12-23T08:50:38.889Z,54.8
2018-12-23T08:51:29.514Z,54.8
2018-12-23T08:52:19.054Z,54.9
2018-12-23T08:53:09.602Z,55
2018-12-23T08:53:58.872Z,55.1
2018-12-23T08:54:49.192Z,55.3
2018-12-23T08:55:39.242Z,55.4
2018-12-23T08:56:29.034Z,55.5
2018-12-23T08:57:19.155Z,55.6
2018-12-23T08:58:09.841Z,55.7
2018-12-23T08:58:59.754Z,55.8
2018-12-23T08:59:49.598Z,55.8
2018-12-23T09:00:39.696Z,55.8
2018-12-23T09:16:29.003Z,57.1
2018-12-23T09:17:19.115Z,57.2
2018-12-23T09:18:08.988Z,57.3
2018-12-23T09:18:58.943Z,57.4
2018-12-23T09:19:49.285Z,57.4
2018-12-23T09:20:39.333Z,57.5
2018-12-23T09:21:29.174Z,57.6
2018-12-23T09:22:20.473Z,57.6
2018-12-23T09:23:08.958Z,57.6
2018-12-23T09:23:59.760Z,57.7
2018-12-23T09:24:49.025Z,57.8
2018-12-23T09:25:38.839Z,57.9
2018-12-23T09:26:29.985Z,57.9
2018-12-23T09:27:19.495Z,57.9
2018-12-23T09:28:11.880Z,57.9
2018-12-23T09:28:59.711Z,57.6
2018-12-23T09:29:49.965Z,57.4
2018-12-23T09:30:38.919Z,57.3
2018-12-23T09:31:30.550Z,57.2
2018-12-23T09:32:19.857Z,57.3
2018-12-23T09:33:10.192Z,57.4
2018-12-23T09:34:00.370Z,57.5
2018-12-23T09:34:50.301Z,57.5
2018-12-23T09:35:40.077Z,57.5
2018-12-23T09:36:30.116Z,57.4
2018-12-23T09:37:19.389Z,57.3
2018-12-23T09:38:09.793Z,57.1
2018-12-23T09:39:00.036Z,56.9
2018-12-23T09:39:50.395Z,56.8
2018-12-23T09:40:39.959Z,56.7
2018-12-23T09:41:30.789Z,56.5
2018-12-23T09:42:20.803Z,56.3
2018-12-23T09:43:10.071Z,56.1
2018-12-23T09:44:00.959Z,56.1
2018-12-23T09:44:51.491Z,56.1
2018-12-23T09:45:40.597Z,56.4
2018-12-23T09:46:31.661Z,56.7
2018-12-23T09:47:21.084Z,57.1
2018-12-23T09:48:11.160Z,57.3
2018-12-23T09:49:01.773Z,57.4
2018-12-23T09:49:51.302Z,57.6
2018-12-23T09:50:41.060Z,57.7
2018-12-23T09:52:21.251Z,57.9
2018-12-23T09:53:11.905Z,58
2018-12-23T09:54:01.361Z,58.1
2018-12-23T09:54:52.211Z,58.2
2018-12-23T09:55:42.043Z,58.2
2018-12-23T09:56:32.220Z,58.3
2018-12-23T09:57:21.877Z,58.4
2018-12-23T09:58:12.447Z,58.5
2018-12-23T09:59:02.160Z,58.5
2018-12-23T10:00:41.773Z,58.7
2018-12-23T10:01:32.994Z,58.7
2018-12-23T10:02:22.743Z,58.7
2018-12-23T10:03:12.530Z,58.6
2018-12-23T10:06:32.715Z,58.4
2018-12-23T10:07:22.505Z,58.3
2018-12-23T10:08:15.894Z,58.1
2018-12-23T10:09:02.667Z,57.9
2018-12-23T10:09:52.654Z,57.6
2018-12-23T10:10:43.002Z,57.4
2018-12-23T10:11:32.881Z,57.2
2018-12-23T10:12:22.362Z,57.1
2018-12-23T10:13:12.497Z,57
2018-12-23T10:14:02.947Z,56.9
2018-12-23T10:14:53.017Z,56.8
2018-12-23T10:15:43.092Z,56.7
2018-12-23T10:16:33.414Z,56.6
2018-12-23T10:17:22.969Z,56.4
2018-12-23T10:18:13.794Z,56.3
2018-12-23T10:19:02.334Z,56.1
2018-12-23T10:19:53.364Z,56
2018-12-23T10:20:43.694Z,55.9
2018-12-23T10:21:33.477Z,55.8
2018-12-23T10:22:23.494Z,55.8
2018-12-23T10:23:13.658Z,55.7
2018-12-23T10:24:04.214Z,55.6
2018-12-23T10:24:53.994Z,55.4
2018-12-23T10:25:43.854Z,55.3
2018-12-23T10:26:33.831Z,55.2
2018-12-23T10:27:23.411Z,55.1
2018-12-23T10:28:14.274Z,55
2018-12-23T10:29:03.901Z,54.9
2018-12-23T10:29:53.016Z,54.8
2018-12-23T10:30:43.390Z,54.6
2018-12-23T10:31:33.423Z,54.5
2018-12-23T10:32:23.213Z,54.4
2018-12-23T10:33:13.813Z,54.3
2018-12-23T10:34:03.047Z,54.1
2018-12-23T10:34:54.218Z,54
2018-12-23T10:35:44.013Z,53.9
2018-12-23T10:36:34.038Z,53.8
2018-12-23T10:37:24.486Z,53.8
2018-12-23T10:38:23.328Z,53.8
2018-12-23T10:39:04.303Z,53.8
2018-12-23T10:39:54.011Z,53.8
2018-12-23T10:40:44.409Z,53.9
2018-12-23T10:41:34.383Z,53.9
2018-12-23T10:42:25.407Z,53.8
2018-12-23T10:43:14.913Z,53.8
2018-12-23T10:44:04.580Z,53.9
2018-12-23T10:44:54.917Z,53.9
2018-12-23T10:45:44.415Z,53.9
2018-12-23T10:46:35.303Z,54.1
2018-12-23T10:47:24.798Z,54.3
2018-12-23T10:48:15.048Z,54.4
2018-12-23T10:49:05.358Z,54.7
2018-12-23T10:49:55.820Z,54.9
2018-12-23T10:50:45.630Z,55.1
2018-12-23T10:51:35.297Z,55.3
2018-12-23T10:52:25.422Z,55.3
2018-12-23T10:53:15.962Z,55.4
2018-12-23T10:54:05.324Z,55.6
2018-12-23T10:54:55.540Z,55.6
2018-12-23T10:55:45.970Z,55.8
2018-12-23T10:56:36.239Z,55.9
2018-12-23T10:57:26.555Z,56
2018-12-23T10:58:16.319Z,56.1
2018-12-23T10:59:05.904Z,56.2
2018-12-23T10:59:55.490Z,56.3
2018-12-23T11:00:46.489Z,56.4
2018-12-23T11:01:36.666Z,56.5
2018-12-23T11:02:26.587Z,56.6
2018-12-23T11:03:16.764Z,56.7
2018-12-23T11:04:06.536Z,56.8
2018-12-23T11:04:56.803Z,56.9
2018-12-23T11:05:46.544Z,56.9
2018-12-23T11:06:37.178Z,56.9
2018-12-23T11:07:26.916Z,56.9
2018-12-23T11:08:16.741Z,57
2018-12-23T11:09:07.159Z,57.1
2018-12-23T11:10:06.058Z,57.2
2018-12-23T11:10:47.241Z,57.3
2018-12-23T11:11:37.529Z,57.4
2018-12-23T11:12:27.594Z,57.4
2018-12-23T11:13:17.076Z,57.4
2018-12-23T11:14:07.171Z,57.5
2018-12-23T11:14:57.227Z,57.6
2018-12-23T11:15:48.146Z,57.6
2018-12-23T11:16:37.404Z,57.6
2018-12-23T11:17:27.482Z,57.7
2018-12-23T11:19:07.478Z,57.8
2018-12-23T11:19:57.815Z,57.8
2018-12-23T11:20:47.883Z,57.9
2018-12-23T11:21:40.211Z,57.9
2018-12-23T11:22:26.741Z,58
2018-12-23T11:23:18.050Z,58.1
2018-12-23T11:24:08.369Z,58.1
2018-12-23T11:24:57.905Z,58.1
2018-12-23T11:25:48.835Z,58.2
2018-12-23T11:26:38.312Z,58.2
2018-12-23T11:27:27.857Z,58.3
2018-12-23T11:28:18.683Z,58.3
2018-12-23T11:29:08.187Z,58.3
2018-12-23T11:29:58.559Z,58.4
2018-12-23T11:30:48.106Z,58.5
2018-12-23T11:32:28.702Z,58.6
2018-12-23T11:33:18.797Z,58.7
2018-12-23T11:34:08.875Z,58.8
2018-12-23T11:34:59.187Z,58.8
2018-12-23T11:35:48.124Z,58.9
2018-12-23T11:36:38.411Z,58.9
2018-12-23T11:37:28.781Z,58.9
2018-12-23T11:38:20.800Z,59
2018-12-23T11:39:08.964Z,59
2018-12-23T11:39:59.229Z,59.1
2018-12-23T11:40:48.994Z,59.1
2018-12-23T11:41:39.533Z,59.1
2018-12-23T11:42:29.248Z,59.1
2018-12-23T11:43:19.146Z,59.2
2018-12-23T11:44:08.781Z,59.3
2018-12-23T11:44:59.576Z,59.2
2018-12-23T11:45:48.536Z,59.2
2018-12-23T11:46:39.508Z,59.3
2018-12-23T11:47:29.533Z,59.3
2018-12-23T11:48:20.101Z,59.3
2018-12-23T11:49:09.655Z,59.3
2018-12-23T11:50:00.183Z,59.3
2018-12-23T11:50:49.708Z,59.3
2018-12-23T11:51:39.875Z,59.4
2018-12-23T11:52:29.653Z,59.4
2018-12-23T11:53:20.155Z,59.4
2018-12-23T11:54:09.435Z,59.4
2018-12-23T11:54:59.825Z,59.2
2018-12-23T11:55:50.428Z,59
2018-12-23T11:56:40.408Z,58.8
2018-12-23T11:57:30.185Z,58.8
2018-12-23T11:58:20.816Z,58.8
2018-12-23T11:59:10.625Z,58.7
2018-12-23T12:00:51.045Z,58.6
2018-12-23T12:01:41.299Z,58.8
2018-12-23T12:02:30.523Z,58.9
2018-12-23T12:03:20.865Z,58.9
2018-12-23T12:04:10.640Z,58.9
2018-12-23T12:05:00.162Z,58.9
2018-12-23T12:05:51.054Z,58.9
2018-12-23T12:06:41.112Z,58.9
2018-12-23T12:07:30.871Z,59
2018-12-23T12:08:21.507Z,59.1
2018-12-23T12:09:12.235Z,59.1
2018-12-23T12:10:01.437Z,59.2
2018-12-23T12:10:51.344Z,59.3
2018-12-23T12:11:41.209Z,59.3
2018-12-23T12:12:31.764Z,59.3
2018-12-23T12:13:21.944Z,59.4
2018-12-23T12:14:10.879Z,59.4
2018-12-23T12:15:01.248Z,59.3
2018-12-23T12:15:51.980Z,59.3
2018-12-23T12:16:42.073Z,59
2018-12-23T12:17:31.624Z,58.9
2018-12-23T12:18:21.739Z,58.8
2018-12-23T12:19:12.293Z,58.7
2018-12-23T12:20:01.954Z,58.7
2018-12-23T12:21:42.437Z,58.3
2018-12-23T12:22:32.042Z,58.1
2018-12-23T12:23:22.274Z,57.7
2018-12-23T12:24:12.047Z,57.1
2018-12-23T12:25:01.848Z,56.3
2018-12-23T12:25:51.881Z,55.6
2018-12-23T12:26:41.943Z,54.9
2018-12-23T12:27:32.293Z,54.3
2018-12-23T12:28:22.874Z,53.8
2018-12-23T12:29:14.359Z,53.3
2018-12-23T12:30:02.709Z,52.6
2018-12-23T12:30:52.497Z,52.1
2018-12-23T12:31:42.303Z,51.6
2018-12-23T12:32:32.619Z,51
2018-12-23T12:33:23.069Z,50.5
2018-12-23T12:34:12.739Z,50
2018-12-23T12:35:04.231Z,49.5
2018-12-23T12:35:53.673Z,49
2018-12-23T12:36:42.437Z,48.6
2018-12-23T12:37:32.971Z,48.2
2018-12-23T12:38:23.033Z,47.8
2018-12-23T12:39:13.094Z,47.4
2018-12-23T12:40:03.486Z,47.1
2018-12-23T12:40:56.038Z,46.7
2018-12-23T12:41:43.565Z,46.4
2018-12-23T12:42:33.383Z,46.1
2018-12-23T12:43:22.805Z,45.8
2018-12-23T12:44:13.173Z,45.5
2018-12-23T12:45:03.664Z,45.2
2018-12-23T12:46:02.499Z,44.9
2018-12-23T12:46:43.623Z,44.7
2018-12-23T12:47:33.983Z,44.5
2018-12-23T12:48:23.824Z,44.3
2018-12-23T12:49:14.337Z,44.1
2018-12-23T12:50:03.961Z,43.9
2018-12-23T12:50:53.903Z,43.7
2018-12-23T12:51:44.255Z,43.4
2018-12-23T12:52:34.138Z,43.3
2018-12-23T12:53:24.370Z,43.1
2018-12-23T12:54:14.422Z,42.9
2018-12-23T12:55:04.843Z,42.8
2018-12-23T12:55:54.552Z,42.6
2018-12-23T12:56:44.627Z,42.5
2018-12-23T12:57:34.095Z,42.3
2018-12-23T12:58:25.132Z,42.2
2018-12-23T12:59:15.033Z,42.1
2018-12-23T13:00:04.542Z,41.9
2018-12-23T13:00:54.108Z,41.8
2018-12-23T13:01:45.071Z,41.6
2018-12-23T13:02:34.842Z,41.4
2018-12-23T13:03:24.527Z,41.3
2018-12-23T13:04:14.570Z,41.2
2018-12-23T13:05:05.462Z,41.1
2018-12-23T13:05:55.232Z,40.9
2018-12-23T13:06:45.918Z,40.8
2018-12-23T13:07:35.410Z,40.7
2018-12-23T13:08:24.847Z,40.6
2018-12-23T13:09:14.984Z,40.4
2018-12-23T13:10:05.767Z,40.3
2018-12-23T13:10:55.148Z,40.2
2018-12-23T13:11:44.597Z,40.1
2018-12-23T13:12:35.777Z,40
2018-12-23T13:13:25.302Z,39.9
2018-12-23T13:14:15.052Z,39.8
2018-12-23T13:15:05.628Z,39.7
2018-12-23T13:15:56.244Z,39.6
2018-12-23T13:16:45.699Z,39.5
2018-12-23T13:17:35.502Z,39.4
2018-12-23T13:18:26.394Z,39.3
2018-12-23T13:19:15.965Z,39.2
2018-12-23T13:20:05.967Z,39.2
2018-12-23T13:20:56.609Z,39
2018-12-23T13:21:46.051Z,38.9
2018-12-23T13:22:36.714Z,38.9
2018-12-23T13:23:27.046Z,38.8
2018-12-23T13:24:15.741Z,38.7
2018-12-23T13:25:06.119Z,38.6
2018-12-23T13:25:56.351Z,38.5
2018-12-23T13:26:45.836Z,38.4
2018-12-23T13:27:36.693Z,38.4
2018-12-23T13:28:26.104Z,38.3
2018-12-23T13:29:15.821Z,38.3
2018-12-23T13:30:08.401Z,38.2
2018-12-23T13:30:56.148Z,38.1
2018-12-23T13:31:47.610Z,38
2018-12-23T13:32:36.599Z,38
2018-12-23T13:33:26.707Z,37.9
2018-12-23T13:34:17.001Z,37.8
2018-12-23T13:35:06.333Z,37.8
2018-12-23T13:35:56.563Z,37.8
2018-12-23T13:36:47.231Z,37.7
2018-12-23T13:37:36.668Z,37.6
2018-12-23T13:38:27.244Z,37.6
2018-12-23T13:39:16.522Z,37.5
2018-12-23T13:40:07.237Z,37.4
2018-12-23T13:40:56.632Z,37.4
2018-12-23T13:41:49.887Z,37.3
2018-12-23T13:42:36.751Z,37.3
2018-12-23T13:43:26.255Z,37.2
2018-12-23T13:44:17.697Z,37.1
2018-12-23T13:45:07.474Z,37
2018-12-23T13:45:56.962Z,37
2018-12-23T13:46:47.365Z,36.9
2018-12-23T13:47:37.361Z,36.8
2018-12-23T13:48:27.694Z,36.8
2018-12-23T13:49:17.029Z,36.7
2018-12-23T13:50:07.009Z,36.6
2018-12-23T13:50:57.867Z,36.6
2018-12-23T13:51:48.040Z,36.5
2018-12-23T13:52:37.546Z,36.4
2018-12-23T13:53:28.162Z,36.4
2018-12-23T13:54:19.907Z,36.3
2018-12-23T13:55:07.958Z,36.2
2018-12-23T13:55:58.233Z,36.1
2018-12-23T13:56:48.268Z,36.1
2018-12-23T13:57:38.594Z,36
2018-12-23T13:58:28.179Z,36
2018-12-23T14:15:23.696Z,34.8
2018-12-23T14:16:13.912Z,34.8
2018-12-23T14:17:04.139Z,34.7
2018-12-23T14:17:52.769Z,34.6
2018-12-23T14:18:58.244Z,34.6
2018-12-23T14:19:33.375Z,34.5
2018-12-23T14:20:24.434Z,34.5
2018-12-23T14:21:13.967Z,34.4
2018-12-23T14:22:03.752Z,34.4
2018-12-23T14:22:54.626Z,34.3
2018-12-23T14:23:44.399Z,34.3
2018-12-23T14:24:48.566Z,34.3
2018-12-23T14:25:23.959Z,34.2
2018-12-23T14:26:15.115Z,34.1
2018-12-23T14:27:04.621Z,34.1
2018-12-23T14:27:54.447Z,34.1
2018-12-23T14:28:45.026Z,34.1
2018-12-23T14:29:34.855Z,34
2018-12-23T14:30:24.608Z,33.9
2018-12-23T14:31:15.174Z,33.9
2018-12-23T14:32:05.252Z,33.8
2018-12-23T14:32:54.198Z,33.8
2018-12-23T14:33:45.793Z,33.8
2018-12-23T14:34:35.143Z,33.8
2018-12-23T14:35:24.863Z,33.7
2018-12-23T14:36:15.506Z,33.6
2018-12-23T14:37:05.517Z,33.6
2018-12-23T14:37:55.371Z,33.6
2018-12-23T14:38:45.141Z,33.5
2018-12-23T14:40:07.313Z,33.5
2018-12-23T14:40:24.991Z,33.4
2018-12-23T14:41:14.983Z,33.4
2018-12-23T14:42:55.343Z,33.4
2018-12-23T14:43:46.048Z,33.3
2018-12-23T14:44:35.540Z,33.3
2018-12-23T14:45:25.868Z,33.3
2018-12-23T14:46:16.018Z,33.2
2018-12-23T14:47:20.625Z,33.2
2018-12-23T14:47:56.303Z,33.1
2018-12-23T14:48:45.800Z,33.1
2018-12-23T14:49:36.088Z,33.1
2018-12-23T14:50:26.286Z,33.1
2018-12-23T14:51:16.688Z,33
2018-12-23T14:52:21.693Z,33
2018-12-23T14:52:55.811Z,32.9
2018-12-23T14:53:46.443Z,32.9
2018-12-23T14:54:35.918Z,32.9
2018-12-23T14:55:26.243Z,32.9
2018-12-23T14:56:16.633Z,32.8
2018-12-23T14:57:06.631Z,32.8
2018-12-23T14:57:56.170Z,32.8
2018-12-23T14:58:47.088Z,32.8
2018-12-23T14:59:50.498Z,32.7
2018-12-23T15:00:42.070Z,32.7
2018-12-23T15:01:17.217Z,32.6
2018-12-23T15:02:07.545Z,32.6
2018-12-23T15:02:57.037Z,32.6
2018-12-23T15:03:46.272Z,32.6
2018-12-23T15:04:36.782Z,32.5
2018-12-23T15:05:27.275Z,32.5
2018-12-23T15:06:17.260Z,32.4
2018-12-23T15:07:07.962Z,32.3
2018-12-23T15:07:57.009Z,32.2
2018-12-23T15:08:47.540Z,32.1
2018-12-23T15:09:39.657Z,31.9
2018-12-23T15:10:27.271Z,31.8
2018-12-23T15:11:17.882Z,31.7
2018-12-23T15:12:08.222Z,31.6
2018-12-23T15:13:12.094Z,31.5
2018-12-23T15:13:48.242Z,31.3
2018-12-23T15:14:52.189Z,31.3
2018-12-23T15:15:28.330Z,31.2
2018-12-23T15:16:18.477Z,31.1
2018-12-23T15:17:22.499Z,31.1
2018-12-23T15:18:12.256Z,30.9
2018-12-23T15:18:47.576Z,30.9
2018-12-23T15:19:37.907Z,30.9
2018-12-23T15:20:28.044Z,30.8
2018-12-23T15:21:17.751Z,30.7
2018-12-23T15:22:08.661Z,30.7
2018-12-23T15:22:58.409Z,30.6
2018-12-23T15:23:49.206Z,30.6
2018-12-23T15:24:38.546Z,30.6
2018-12-23T15:25:28.589Z,30.5
2018-12-23T15:26:18.889Z,30.5
2018-12-23T15:27:08.676Z,30.4
2018-12-23T15:27:58.486Z,30.4
2018-12-23T15:28:48.814Z,30.4
2018-12-23T15:29:38.618Z,30.4
2018-12-23T15:30:28.658Z,30.3
2018-12-23T15:31:33.583Z,30.3
2018-12-23T15:32:09.119Z,30.3
2018-12-23T15:32:59.615Z,30.2
2018-12-23T15:33:49.391Z,30.2
2018-12-23T15:34:38.944Z,30.1
2018-12-23T15:35:28.724Z,30.1
2018-12-23T15:36:18.777Z,30.1
2018-12-23T15:37:09.369Z,30
2018-12-23T15:37:59.614Z,30
2018-12-23T15:38:49.959Z,29.9
2018-12-23T15:39:47.372Z,29.9
2018-12-23T15:40:29.447Z,29.9
2018-12-23T15:41:19.674Z,29.9
2018-12-23T15:42:09.994Z,29.8
2018-12-23T15:42:59.799Z,29.8
2018-12-23T15:43:50.522Z,29.8
2018-12-23T15:44:39.714Z,29.8
2018-12-23T15:45:30.531Z,29.7
2018-12-23T15:46:19.859Z,29.7
2018-12-23T15:47:09.496Z,29.7
2018-12-23T15:48:00.692Z,29.6
2018-12-23T15:48:50.681Z,29.6
2018-12-23T15:49:40.503Z,29.6
2018-12-23T15:50:45.683Z,29.6
2018-12-23T15:51:23.008Z,29.5
2018-12-23T15:52:10.390Z,29.5
2018-12-23T15:53:00.748Z,29.5
2018-12-23T15:53:50.821Z,29.4
2018-12-23T15:54:49.388Z,29.4
2018-12-23T15:55:30.666Z,29.4
2018-12-23T15:56:20.773Z,29.4
2018-12-23T15:57:10.745Z,29.4
2018-12-23T15:58:01.655Z,29.4
2018-12-23T15:59:05.634Z,29.4
2018-12-23T16:00:31.129Z,29.3
2018-12-23T16:01:35.357Z,29.3
2018-12-23T16:02:10.813Z,29.3
2018-12-23T16:03:00.588Z,29.3
2018-12-23T16:03:51.455Z,29.3
2018-12-23T16:04:41.247Z,29.3
2018-12-23T16:05:31.615Z,29.2
2018-12-23T16:06:21.370Z,29.3
2018-12-23T16:07:11.795Z,29.2
2018-12-23T16:08:01.617Z,29.2
2018-12-23T16:08:51.727Z,29.2
2018-12-23T16:09:55.965Z,29.2
2018-12-23T16:10:31.320Z,29.1
2018-12-23T16:11:22.020Z,29.1
2018-12-23T16:12:12.077Z,29
2018-12-23T16:13:16.754Z,28.9
2018-12-23T16:13:52.157Z,28.8
2018-12-23T16:14:42.839Z,28.7
2018-12-23T16:15:32.989Z,28.6
2018-12-23T16:16:21.497Z,28.4
2018-12-23T16:17:11.387Z,28.4
2018-12-23T16:18:02.157Z,28.3
2018-12-23T16:18:51.987Z,28.1
2018-12-23T16:19:42.554Z,28.1
2018-12-23T16:20:32.055Z,28
2018-12-23T16:21:37.272Z,27.9
2018-12-23T16:24:07.266Z,27.8
2018-12-23T16:24:43.677Z,27.7
2018-12-23T16:25:32.372Z,27.6
2018-12-23T16:26:23.419Z,27.6
2018-12-23T16:27:13.754Z,27.6
2018-12-23T16:28:03.396Z,27.5
2018-12-23T16:29:24.836Z,27.4
2018-12-23T16:29:42.976Z,27.4
2018-12-23T16:30:32.503Z,27.4
2018-12-23T16:31:22.776Z,27.4
2018-12-23T16:32:12.585Z,27.3
2018-12-23T16:33:03.583Z,27.3
2018-12-23T16:33:52.753Z,27.3
2018-12-23T16:34:43.673Z,27.3
2018-12-23T16:35:33.627Z,27.2
2018-12-23T16:36:22.841Z,27.2
2018-12-23T16:38:03.273Z,27.1
2018-12-23T16:38:54.062Z,27.1
2018-12-23T16:39:43.606Z,27.1
2018-12-23T16:40:33.385Z,27.1
2018-12-23T16:41:22.888Z,27
2018-12-23T16:42:13.881Z,27
2018-12-23T16:43:03.780Z,26.9
2018-12-23T16:43:53.894Z,26.9
2018-12-23T16:44:44.427Z,26.8
2018-12-23T16:45:33.443Z,26.8
2018-12-23T16:46:24.342Z,26.7
2018-12-23T16:47:14.425Z,26.6